KTPL/TPL METAR and TAF weather

Enter ICAO airport designator
Station Type Date Time Source
KTPL METAR 2020/01/20 18:51 UTC NOAA

KTPL 201851Z AUTO VRB05KT 10SM CLR 13/M04 A3056 RMK AO2 SLP346 T01331039


Station Type Date Time Source
KTPL Decoded METAR 2020/01/20 18:51 UTC NOAA

Temple, Draughon-Miller Central Texas Regional Airport, TX, United States (KTPL) 31-09N 097-24W
Jan 20, 2020 - 01:51 PM EST / 2020.01.20 1851 UTC
Wind: Variable at 6 MPH (5 KT):0
Visibility: 10 mile(s):0
Sky conditions: clear
Temperature: 55.9 F (13.3 C)
Dew Point: 25.0 F (-3.9 C)
Relative Humidity: 29%
Pressure (altimeter): 30.56 in. Hg (1034 hPa)
ob: KTPL 201851Z AUTO VRB05KT 10SM CLR 13/M04 A3056 RMK AO2 SLP346 T01331039
cycle: 19

Station Type Date Time Source
KTPL TAF UTC NOAA

Error!

Example: see airport list